Valence-Chabeuil Airport

Airport
ICAO code: 
LFLU
IATA Code: 
VAF
Summary
ICAO Region: 
EUR
Territory: 
Location: 
, Rhone-Alpes
Serving: 
Valence
Elevation: 
525 ft
Coordinates: 
Aerial View: 
44° 55' 17.738" N, 4° 58' 11.64" E
Metar
Observation
LFLU 060600Z AUTO 01010KT 9999 -RA BKN010 BKN014 BKN019 03/02 Q1013
Station
Valence-Chabeuil
Date/Time
2021-12-06 06:00:00
Wind direction
10°
Wind speed
10 kts
Lowest cloud amount
broken clouds
Temperature
3°C
Dew point
2°C
Humidity
93%
QNH
1013 hPa
Weather condition
light rain

Runways

Designator Length Width Surface Rops
1/19 2100 45 ASP No/No
Airport map: 
Aerial View: 

SKYbrary Partners:

Safety knowledge contributed by: